sensor_id;sensor_type;location;lat;lon;timestamp;P1;durP1;ratioP1;P2;durP2;ratioP2
16159;SDS011;8185;57.818;15.224;2023-07-29T00:00:00;2.03;;;1.30;;
16159;SDS011;8185;57.818;15.224;2023-07-29T00:02:28;1.50;;;1.40;;
16159;SDS011;8185;57.818;15.224;2023-07-29T00:04:57;1.50;;;1.33;;
16159;SDS011;8185;57.818;15.224;2023-07-29T00:07:24;1.93;;;1.37;;
16159;SDS011;8185;57.818;15.224;2023-07-29T00:09:51;2.63;;;1.77;;
16159;SDS011;8185;57.818;15.224;2023-07-29T00:12:20;2.10;;;1.43;;
16159;SDS011;8185;57.818;15.224;2023-07-29T00:14:47;4.13;;;1.50;;
16159;SDS011;8185;57.818;15.224;2023-07-29T00:17:14;1.53;;;1.43;;
16159;SDS011;8185;57.818;15.224;2023-07-29T00:19:41;2.27;;;1.60;;
16159;SDS011;8185;57.818;15.224;2023-07-29T00:22:08;1.70;;;1.60;;
16159;SDS011;8185;57.818;15.224;2023-07-29T00:24:36;1.67;;;1.20;;
16159;SDS011;8185;57.818;15.224;2023-07-29T00:27:03;2.13;;;1.40;;
16159;SDS011;8185;57.818;15.224;2023-07-29T00:29:32;1.33;;;1.23;;
16159;SDS011;8185;57.818;15.224;2023-07-29T00:31:59;1.70;;;1.37;;
16159;SDS011;8185;57.818;15.224;2023-07-29T00:34:26;2.03;;;1.50;;
16159;SDS011;8185;57.818;15.224;2023-07-29T00:36:53;1.70;;;1.60;;
16159;SDS011;8185;57.818;15.224;2023-07-29T00:39:20;2.00;;;1.80;;
16159;SDS011;8185;57.818;15.224;2023-07-29T00:41:47;6.23;;;1.70;;
16159;SDS011;8185;57.818;15.224;2023-07-29T00:44:15;1.90;;;1.43;;
16159;SDS011;8185;57.818;15.224;2023-07-29T00:46:44;3.30;;;1.80;;
16159;SDS011;8185;57.818;15.224;2023-07-29T00:49:13;4.83;;;1.73;;
16159;SDS011;8185;57.818;15.224;2023-07-29T00:51:40;1.80;;;1.70;;
16159;SDS011;8185;57.818;15.224;2023-07-29T00:54:07;3.17;;;1.83;;
16159;SDS011;8185;57.818;15.224;2023-07-29T00:56:35;3.53;;;1.80;;
16159;SDS011;8185;57.818;15.224;2023-07-29T00:59:03;5.73;;;2.10;;
16159;SDS011;8185;57.818;15.224;2023-07-29T01:01:30;4.23;;;1.57;;
16159;SDS011;8185;57.818;15.224;2023-07-29T01:03:59;2.40;;;1.47;;
16159;SDS011;8185;57.818;15.224;2023-07-29T01:06:27;3.57;;;1.73;;
16159;SDS011;8185;57.818;15.224;2023-07-29T01:09:07;2.70;;;1.47;;
16159;SDS011;8185;57.818;15.224;2023-07-29T01:11:42;2.03;;;1.83;;
16159;SDS011;8185;57.818;15.224;2023-07-29T01:14:17;2.13;;;1.57;;
16159;SDS011;8185;57.818;15.224;2023-07-29T01:16:51;1.70;;;1.50;;
16159;SDS011;8185;57.818;15.224;2023-07-29T01:19:30;1.87;;;1.47;;
16159;SDS011;8185;57.818;15.224;2023-07-29T01:22:09;2.20;;;1.40;;
16159;SDS011;8185;57.818;15.224;2023-07-29T01:24:39;1.47;;;1.37;;
16159;SDS011;8185;57.818;15.224;2023-07-29T01:27:06;2.20;;;1.70;;
16159;SDS011;8185;57.818;15.224;2023-07-29T01:29:33;1.63;;;1.53;;
16159;SDS011;8185;57.818;15.224;2023-07-29T01:32:04;1.50;;;1.40;;
16159;SDS011;8185;57.818;15.224;2023-07-29T01:34:39;2.93;;;1.70;;
16159;SDS011;8185;57.818;15.224;2023-07-29T01:37:11;2.03;;;1.40;;
16159;SDS011;8185;57.818;15.224;2023-07-29T01:39:47;1.83;;;1.73;;
16159;SDS011;8185;57.818;15.224;2023-07-29T01:42:17;3.70;;;1.63;;
16159;SDS011;8185;57.818;15.224;2023-07-29T01:44:44;1.80;;;1.70;;
16159;SDS011;8185;57.818;15.224;2023-07-29T01:47:12;1.70;;;1.60;;
16159;SDS011;8185;57.818;15.224;2023-07-29T01:49:39;3.33;;;1.70;;
16159;SDS011;8185;57.818;15.224;2023-07-29T01:52:06;2.20;;;2.00;;
16159;SDS011;8185;57.818;15.224;2023-07-29T01:54:33;1.90;;;1.70;;
16159;SDS011;8185;57.818;15.224;2023-07-29T01:57:02;1.87;;;1.63;;
16159;SDS011;8185;57.818;15.224;2023-07-29T01:59:29;4.47;;;1.83;;
16159;SDS011;8185;57.818;15.224;2023-07-29T02:01:57;1.60;;;1.50;;
16159;SDS011;8185;57.818;15.224;2023-07-29T02:04:24;2.27;;;1.70;;
16159;SDS011;8185;57.818;15.224;2023-07-29T02:06:51;3.03;;;1.90;;
16159;SDS011;8185;57.818;15.224;2023-07-29T02:09:18;2.80;;;1.97;;
16159;SDS011;8185;57.818;15.224;2023-07-29T02:11:45;2.23;;;1.80;;
16159;SDS011;8185;57.818;15.224;2023-07-29T02:14:14;3.70;;;2.10;;
16159;SDS011;8185;57.818;15.224;2023-07-29T02:16:41;2.83;;;2.33;;
16159;SDS011;8185;57.818;15.224;2023-07-29T02:19:08;2.70;;;2.20;;
16159;SDS011;8185;57.818;15.224;2023-07-29T02:21:35;2.80;;;2.50;;
16159;SDS011;8185;57.818;15.224;2023-07-29T02:24:02;2.93;;;2.50;;
16159;SDS011;8185;57.818;15.224;2023-07-29T02:26:30;3.17;;;2.20;;
16159;SDS011;8185;57.818;15.224;2023-07-29T02:28:57;2.30;;;2.10;;
16159;SDS011;8185;57.818;15.224;2023-07-29T02:31:25;3.90;;;2.30;;
16159;SDS011;8185;57.818;15.224;2023-07-29T02:33:53;3.63;;;2.80;;
16159;SDS011;8185;57.818;15.224;2023-07-29T02:36:20;2.97;;;2.77;;
16159;SDS011;8185;57.818;15.224;2023-07-29T02:38:47;3.83;;;3.53;;
16159;SDS011;8185;57.818;15.224;2023-07-29T02:41:15;4.70;;;3.57;;
16159;SDS011;8185;57.818;15.224;2023-07-29T02:43:42;5.57;;;4.00;;
16159;SDS011;8185;57.818;15.224;2023-07-29T02:46:10;4.33;;;3.93;;
16159;SDS011;8185;57.818;15.224;2023-07-29T02:48:38;5.63;;;3.50;;
16159;SDS011;8185;57.818;15.224;2023-07-29T02:51:05;3.77;;;3.47;;
16159;SDS011;8185;57.818;15.224;2023-07-29T02:53:32;4.40;;;3.50;;
16159;SDS011;8185;57.818;15.224;2023-07-29T02:56:01;4.27;;;3.27;;
16159;SDS011;8185;57.818;15.224;2023-07-29T02:58:29;4.23;;;3.50;;
16159;SDS011;8185;57.818;15.224;2023-07-29T03:01:00;4.47;;;3.50;;
16159;SDS011;8185;57.818;15.224;2023-07-29T03:03:28;4.13;;;3.73;;
16159;SDS011;8185;57.818;15.224;2023-07-29T03:05:58;4.63;;;3.50;;
16159;SDS011;8185;57.818;15.224;2023-07-29T03:08:26;4.13;;;3.20;;
16159;SDS011;8185;57.818;15.224;2023-07-29T03:10:56;3.20;;;2.90;;
16159;SDS011;8185;57.818;15.224;2023-07-29T03:13:23;3.00;;;2.80;;
16159;SDS011;8185;57.818;15.224;2023-07-29T03:15:50;4.50;;;3.03;;
16159;SDS011;8185;57.818;15.224;2023-07-29T03:18:17;3.30;;;3.00;;
16159;SDS011;8185;57.818;15.224;2023-07-29T03:20:45;3.33;;;3.10;;
16159;SDS011;8185;57.818;15.224;2023-07-29T03:23:13;4.77;;;3.57;;
16159;SDS011;8185;57.818;15.224;2023-07-29T03:25:40;3.43;;;3.13;;
16159;SDS011;8185;57.818;15.224;2023-07-29T03:28:07;3.77;;;2.93;;
16159;SDS011;8185;57.818;15.224;2023-07-29T03:30:34;3.83;;;3.47;;
16159;SDS011;8185;57.818;15.224;2023-07-29T03:33:02;4.00;;;3.13;;
16159;SDS011;8185;57.818;15.224;2023-07-29T03:35:30;3.93;;;3.50;;
16159;SDS011;8185;57.818;15.224;2023-07-29T03:37:57;3.47;;;3.17;;
16159;SDS011;8185;57.818;15.224;2023-07-29T03:40:25;3.57;;;3.20;;
16159;SDS011;8185;57.818;15.224;2023-07-29T03:42:52;3.73;;;3.37;;
16159;SDS011;8185;57.818;15.224;2023-07-29T03:45:19;4.23;;;3.10;;
16159;SDS011;8185;57.818;15.224;2023-07-29T03:47:46;4.33;;;3.10;;
16159;SDS011;8185;57.818;15.224;2023-07-29T03:50:14;3.33;;;3.03;;
16159;SDS011;8185;57.818;15.224;2023-07-29T03:52:41;3.27;;;2.60;;
16159;SDS011;8185;57.818;15.224;2023-07-29T03:55:08;2.87;;;2.63;;
16159;SDS011;8185;57.818;15.224;2023-07-29T03:57:37;4.50;;;2.87;;
16159;SDS011;8185;57.818;15.224;2023-07-29T04:00:04;3.47;;;2.40;;
16159;SDS011;8185;57.818;15.224;2023-07-29T04:02:32;3.77;;;2.57;;
16159;SDS011;8185;57.818;15.224;2023-07-29T04:05:02;3.03;;;2.30;;
16159;SDS011;8185;57.818;15.224;2023-07-29T04:07:30;3.20;;;2.27;;
16159;SDS011;8185;57.818;15.224;2023-07-29T04:09:57;4.30;;;1.80;;
16159;SDS011;8185;57.818;15.224;2023-07-29T04:12:24;3.37;;;2.37;;
16159;SDS011;8185;57.818;15.224;2023-07-29T04:14:53;2.17;;;1.87;;
16159;SDS011;8185;57.818;15.224;2023-07-29T04:17:20;3.70;;;1.87;;
16159;SDS011;8185;57.818;15.224;2023-07-29T04:19:47;3.33;;;1.83;;
16159;SDS011;8185;57.818;15.224;2023-07-29T04:22:15;1.80;;;1.70;;
16159;SDS011;8185;57.818;15.224;2023-07-29T04:24:42;2.10;;;1.80;;
16159;SDS011;8185;57.818;15.224;2023-07-29T04:27:09;4.87;;;1.90;;
16159;SDS011;8185;57.818;15.224;2023-07-29T04:29:37;2.67;;;2.10;;
16159;SDS011;8185;57.818;15.224;2023-07-29T04:32:06;2.73;;;2.17;;
16159;SDS011;8185;57.818;15.224;2023-07-29T04:34:33;3.17;;;1.87;;
16159;SDS011;8185;57.818;15.224;2023-07-29T04:37:00;2.53;;;1.60;;
16159;SDS011;8185;57.818;15.224;2023-07-29T04:39:27;3.30;;;1.60;;
16159;SDS011;8185;57.818;15.224;2023-07-29T04:41:54;1.90;;;1.60;;
16159;SDS011;8185;57.818;15.224;2023-07-29T04:44:22;2.67;;;1.97;;
16159;SDS011;8185;57.818;15.224;2023-07-29T04:46:49;4.10;;;1.93;;
16159;SDS011;8185;57.818;15.224;2023-07-29T04:49:18;2.27;;;2.07;;
16159;SDS011;8185;57.818;15.224;2023-07-29T04:51:45;2.27;;;2.00;;
16159;SDS011;8185;57.818;15.224;2023-07-29T04:54:12;3.00;;;1.73;;
16159;SDS011;8185;57.818;15.224;2023-07-29T04:56:40;2.17;;;1.90;;
16159;SDS011;8185;57.818;15.224;2023-07-29T04:59:07;2.00;;;1.70;;
16159;SDS011;8185;57.818;15.224;2023-07-29T05:01:34;4.33;;;1.80;;
16159;SDS011;8185;57.818;15.224;2023-07-29T05:04:01;2.73;;;1.70;;
16159;SDS011;8185;57.818;15.224;2023-07-29T05:06:30;1.90;;;1.70;;
16159;SDS011;8185;57.818;15.224;2023-07-29T05:08:57;2.63;;;1.70;;
16159;SDS011;8185;57.818;15.224;2023-07-29T05:11:24;2.67;;;1.93;;
16159;SDS011;8185;57.818;15.224;2023-07-29T05:13:52;2.10;;;1.63;;
16159;SDS011;8185;57.818;15.224;2023-07-29T05:16:19;2.20;;;1.53;;
16159;SDS011;8185;57.818;15.224;2023-07-29T05:18:46;4.00;;;1.73;;
16159;SDS011;8185;57.818;15.224;2023-07-29T05:21:13;1.50;;;1.30;;
16159;SDS011;8185;57.818;15.224;2023-07-29T05:23:42;1.93;;;1.60;;
16159;SDS011;8185;57.818;15.224;2023-07-29T05:26:09;2.43;;;1.50;;
16159;SDS011;8185;57.818;15.224;2023-07-29T05:28:36;2.03;;;1.63;;
16159;SDS011;8185;57.818;15.224;2023-07-29T05:31:03;1.67;;;1.30;;
16159;SDS011;8185;57.818;15.224;2023-07-29T05:33:30;1.90;;;1.50;;
16159;SDS011;8185;57.818;15.224;2023-07-29T05:35:57;3.07;;;2.03;;
16159;SDS011;8185;57.818;15.224;2023-07-29T05:38:25;1.70;;;1.47;;
16159;SDS011;8185;57.818;15.224;2023-07-29T05:40:54;2.73;;;1.80;;
16159;SDS011;8185;57.818;15.224;2023-07-29T05:43:21;1.43;;;1.27;;
16159;SDS011;8185;57.818;15.224;2023-07-29T05:45:50;2.07;;;1.37;;
16159;SDS011;8185;57.818;15.224;2023-07-29T05:48:17;2.13;;;1.73;;
16159;SDS011;8185;57.818;15.224;2023-07-29T05:50:45;2.07;;;1.53;;
16159;SDS011;8185;57.818;15.224;2023-07-29T05:53:13;2.67;;;1.70;;
16159;SDS011;8185;57.818;15.224;2023-07-29T05:55:40;1.93;;;1.70;;
16159;SDS011;8185;57.818;15.224;2023-07-29T05:58:09;3.87;;;2.07;;
16159;SDS011;8185;57.818;15.224;2023-07-29T06:00:36;3.53;;;1.97;;
16159;SDS011;8185;57.818;15.224;2023-07-29T06:03:03;3.53;;;1.93;;
16159;SDS011;8185;57.818;15.224;2023-07-29T06:05:31;4.57;;;1.87;;
16159;SDS011;8185;57.818;15.224;2023-07-29T06:07:58;2.13;;;1.80;;
16159;SDS011;8185;57.818;15.224;2023-07-29T06:10:25;2.57;;;1.80;;
16159;SDS011;8185;57.818;15.224;2023-07-29T06:12:52;2.60;;;1.77;;
16159;SDS011;8185;57.818;15.224;2023-07-29T06:15:20;2.03;;;1.73;;
16159;SDS011;8185;57.818;15.224;2023-07-29T06:17:48;2.70;;;1.90;;
16159;SDS011;8185;57.818;15.224;2023-07-29T06:20:15;2.97;;;1.97;;
16159;SDS011;8185;57.818;15.224;2023-07-29T06:22:42;2.33;;;2.00;;
16159;SDS011;8185;57.818;15.224;2023-07-29T06:25:09;2.77;;;1.83;;
16159;SDS011;8185;57.818;15.224;2023-07-29T06:27:37;2.53;;;1.63;;
16159;SDS011;8185;57.818;15.224;2023-07-29T06:30:04;2.47;;;1.80;;
16159;SDS011;8185;57.818;15.224;2023-07-29T06:32:34;1.90;;;1.60;;
16159;SDS011;8185;57.818;15.224;2023-07-29T06:35:01;3.63;;;2.00;;
16159;SDS011;8185;57.818;15.224;2023-07-29T06:37:28;2.03;;;1.40;;
16159;SDS011;8185;57.818;15.224;2023-07-29T06:39:55;2.93;;;2.10;;
16159;SDS011;8185;57.818;15.224;2023-07-29T06:42:22;2.13;;;1.87;;
16159;SDS011;8185;57.818;15.224;2023-07-29T06:44:50;1.60;;;1.50;;
16159;SDS011;8185;57.818;15.224;2023-07-29T06:47:17;3.90;;;1.63;;
16159;SDS011;8185;57.818;15.224;2023-07-29T06:49:45;6.53;;;2.00;;
16159;SDS011;8185;57.818;15.224;2023-07-29T06:52:13;2.77;;;1.87;;
16159;SDS011;8185;57.818;15.224;2023-07-29T06:54:40;2.17;;;1.80;;
16159;SDS011;8185;57.818;15.224;2023-07-29T06:57:07;3.30;;;2.20;;
16159;SDS011;8185;57.818;15.224;2023-07-29T06:59:34;2.87;;;1.90;;
16159;SDS011;8185;57.818;15.224;2023-07-29T07:02:01;2.30;;;1.47;;
16159;SDS011;8185;57.818;15.224;2023-07-29T07:04:29;2.43;;;1.77;;
16159;SDS011;8185;57.818;15.224;2023-07-29T07:06:57;1.80;;;1.40;;
16159;SDS011;8185;57.818;15.224;2023-07-29T07:09:25;3.13;;;1.87;;
16159;SDS011;8185;57.818;15.224;2023-07-29T07:11:52;3.30;;;2.00;;
16159;SDS011;8185;57.818;15.224;2023-07-29T07:14:19;6.83;;;2.27;;
16159;SDS011;8185;57.818;15.224;2023-07-29T07:16:46;2.20;;;1.70;;
16159;SDS011;8185;57.818;15.224;2023-07-29T07:19:13;2.97;;;2.03;;
16159;SDS011;8185;57.818;15.224;2023-07-29T07:21:41;2.57;;;2.03;;
16159;SDS011;8185;57.818;15.224;2023-07-29T07:24:09;2.20;;;1.80;;
16159;SDS011;8185;57.818;15.224;2023-07-29T07:26:36;2.53;;;2.00;;
16159;SDS011;8185;57.818;15.224;2023-07-29T07:29:04;2.03;;;1.60;;
16159;SDS011;8185;57.818;15.224;2023-07-29T07:31:33;3.07;;;1.93;;
16159;SDS011;8185;57.818;15.224;2023-07-29T07:34:00;3.57;;;2.17;;
16159;SDS011;8185;57.818;15.224;2023-07-29T07:36:28;3.87;;;2.30;;
16159;SDS011;8185;57.818;15.224;2023-07-29T07:38:56;2.10;;;1.87;;
16159;SDS011;8185;57.818;15.224;2023-07-29T07:41:24;5.33;;;2.23;;
16159;SDS011;8185;57.818;15.224;2023-07-29T07:43:51;3.43;;;2.43;;
16159;SDS011;8185;57.818;15.224;2023-07-29T07:46:19;3.20;;;2.00;;
16159;SDS011;8185;57.818;15.224;2023-07-29T07:48:46;4.60;;;2.37;;
16159;SDS011;8185;57.818;15.224;2023-07-29T07:51:13;2.47;;;1.93;;
16159;SDS011;8185;57.818;15.224;2023-07-29T07:53:40;2.43;;;2.10;;
16159;SDS011;8185;57.818;15.224;2023-07-29T07:56:08;2.83;;;2.20;;
16159;SDS011;8185;57.818;15.224;2023-07-29T07:58:36;2.67;;;2.00;;
16159;SDS011;8185;57.818;15.224;2023-07-29T08:01:04;2.00;;;1.70;;
16159;SDS011;8185;57.818;15.224;2023-07-29T08:03:31;2.00;;;1.63;;
16159;SDS011;8185;57.818;15.224;2023-07-29T08:05:59;3.03;;;2.37;;
16159;SDS011;8185;57.818;15.224;2023-07-29T08:08:26;2.20;;;1.73;;
16159;SDS011;8185;57.818;15.224;2023-07-29T08:10:54;3.20;;;2.10;;
16159;SDS011;8185;57.818;15.224;2023-07-29T08:13:23;2.10;;;1.90;;
16159;SDS011;8185;57.818;15.224;2023-07-29T08:15:52;2.40;;;1.80;;
16159;SDS011;8185;57.818;15.224;2023-07-29T08:18:19;2.10;;;1.90;;
16159;SDS011;8185;57.818;15.224;2023-07-29T08:20:53;2.50;;;1.90;;
16159;SDS011;8185;57.818;15.224;2023-07-29T08:23:23;2.60;;;2.07;;
16159;SDS011;8185;57.818;15.224;2023-07-29T08:25:55;3.90;;;2.10;;
16159;SDS011;8185;57.818;15.224;2023-07-29T08:28:27;2.30;;;2.10;;
16159;SDS011;8185;57.818;15.224;2023-07-29T08:30:56;2.00;;;1.80;;
16159;SDS011;8185;57.818;15.224;2023-07-29T08:33:24;2.77;;;2.13;;
16159;SDS011;8185;57.818;15.224;2023-07-29T08:35:51;3.50;;;2.00;;
16159;SDS011;8185;57.818;15.224;2023-07-29T08:38:18;2.70;;;2.10;;
16159;SDS011;8185;57.818;15.224;2023-07-29T08:40:46;2.03;;;1.80;;
16159;SDS011;8185;57.818;15.224;2023-07-29T08:43:19;2.47;;;1.70;;
16159;SDS011;8185;57.818;15.224;2023-07-29T08:45:49;2.53;;;1.97;;
16159;SDS011;8185;57.818;15.224;2023-07-29T08:48:19;2.57;;;2.07;;
16159;SDS011;8185;57.818;15.224;2023-07-29T08:50:55;2.73;;;1.80;;
16159;SDS011;8185;57.818;15.224;2023-07-29T08:53:23;2.30;;;1.80;;
16159;SDS011;8185;57.818;15.224;2023-07-29T08:55:51;2.13;;;1.70;;
16159;SDS011;8185;57.818;15.224;2023-07-29T08:58:18;2.70;;;1.60;;
16159;SDS011;8185;57.818;15.224;2023-07-29T09:00:46;1.87;;;1.60;;
16159;SDS011;8185;57.818;15.224;2023-07-29T09:03:15;3.13;;;2.00;;
16159;SDS011;8185;57.818;15.224;2023-07-29T09:05:43;3.08;;;1.95;;
16159;SDS011;8185;57.818;15.224;2023-07-29T09:08:11;4.30;;;1.93;;
16159;SDS011;8185;57.818;15.224;2023-07-29T09:10:39;2.60;;;1.90;;
16159;SDS011;8185;57.818;15.224;2023-07-29T09:13:07;2.23;;;1.93;;
16159;SDS011;8185;57.818;15.224;2023-07-29T09:15:35;1.77;;;1.57;;
16159;SDS011;8185;57.818;15.224;2023-07-29T09:18:09;2.60;;;1.90;;
16159;SDS011;8185;57.818;15.224;2023-07-29T09:20:37;3.20;;;2.13;;
16159;SDS011;8185;57.818;15.224;2023-07-29T09:23:07;2.23;;;2.03;;
16159;SDS011;8185;57.818;15.224;2023-07-29T09:25:36;2.10;;;1.90;;
16159;SDS011;8185;57.818;15.224;2023-07-29T09:28:07;2.53;;;2.10;;
16159;SDS011;8185;57.818;15.224;2023-07-29T09:30:37;3.67;;;2.20;;
16159;SDS011;8185;57.818;15.224;2023-07-29T09:33:04;3.37;;;2.10;;
16159;SDS011;8185;57.818;15.224;2023-07-29T09:35:32;2.40;;;2.03;;
16159;SDS011;8185;57.818;15.224;2023-07-29T09:38:00;2.77;;;2.10;;
16159;SDS011;8185;57.818;15.224;2023-07-29T09:40:33;2.23;;;2.03;;
16159;SDS011;8185;57.818;15.224;2023-07-29T09:43:02;2.10;;;1.83;;
16159;SDS011;8185;57.818;15.224;2023-07-29T09:45:32;2.45;;;2.20;;
16159;SDS011;8185;57.818;15.224;2023-07-29T09:48:00;2.17;;;1.97;;
16159;SDS011;8185;57.818;15.224;2023-07-29T09:50:28;2.65;;;2.20;;
16159;SDS011;8185;57.818;15.224;2023-07-29T09:52:56;3.40;;;2.05;;
16159;SDS011;8185;57.818;15.224;2023-07-29T09:55:24;2.58;;;2.10;;
16159;SDS011;8185;57.818;15.224;2023-07-29T09:57:55;2.03;;;1.83;;
16159;SDS011;8185;57.818;15.224;2023-07-29T10:00:25;2.88;;;2.10;;
16159;SDS011;8185;57.818;15.224;2023-07-29T10:02:53;3.80;;;2.47;;
16159;SDS011;8185;57.818;15.224;2023-07-29T10:05:21;2.50;;;2.05;;
16159;SDS011;8185;57.818;15.224;2023-07-29T10:07:49;2.63;;;1.92;;
16159;SDS011;8185;57.818;15.224;2023-07-29T10:10:17;3.90;;;2.10;;
16159;SDS011;8185;57.818;15.224;2023-07-29T10:12:44;2.60;;;1.80;;
16159;SDS011;8185;57.818;15.224;2023-07-29T10:15:13;2.42;;;2.00;;
16159;SDS011;8185;57.818;15.224;2023-07-29T10:17:41;1.98;;;1.70;;
16159;SDS011;8185;57.818;15.224;2023-07-29T10:20:09;2.35;;;2.00;;
16159;SDS011;8185;57.818;15.224;2023-07-29T10:22:38;1.65;;;1.52;;
16159;SDS011;8185;57.818;15.224;2023-07-29T10:25:07;2.30;;;2.00;;
16159;SDS011;8185;57.818;15.224;2023-07-29T10:27:38;2.28;;;1.73;;
16159;SDS011;8185;57.818;15.224;2023-07-29T10:30:14;2.90;;;2.42;;
16159;SDS011;8185;57.818;15.224;2023-07-29T10:32:42;3.63;;;1.98;;
16159;SDS011;8185;57.818;15.224;2023-07-29T10:35:10;2.40;;;2.20;;
16159;SDS011;8185;57.818;15.224;2023-07-29T10:37:38;3.17;;;2.05;;
16159;SDS011;8185;57.818;15.224;2023-07-29T10:40:07;2.30;;;1.77;;
16159;SDS011;8185;57.818;15.224;2023-07-29T10:42:35;2.90;;;2.35;;
16159;SDS011;8185;57.818;15.224;2023-07-29T10:45:18;2.53;;;1.90;;
16159;SDS011;8185;57.818;15.224;2023-07-29T10:47:47;2.20;;;2.00;;
16159;SDS011;8185;57.818;15.224;2023-07-29T10:50:18;2.55;;;1.90;;
16159;SDS011;8185;57.818;15.224;2023-07-29T10:52:49;2.30;;;2.00;;
16159;SDS011;8185;57.818;15.224;2023-07-29T10:55:27;2.90;;;2.33;;
16159;SDS011;8185;57.818;15.224;2023-07-29T10:58:06;2.25;;;2.05;;
16159;SDS011;8185;57.818;15.224;2023-07-29T11:00:36;2.85;;;2.00;;
16159;SDS011;8185;57.818;15.224;2023-07-29T11:03:05;2.38;;;2.03;;
16159;SDS011;8185;57.818;15.224;2023-07-29T11:05:43;1.92;;;1.73;;
16159;SDS011;8185;57.818;15.224;2023-07-29T11:08:18;2.50;;;2.30;;
16159;SDS011;8185;57.818;15.224;2023-07-29T11:11:03;2.53;;;1.80;;
16159;SDS011;8185;57.818;15.224;2023-07-29T11:13:31;2.95;;;2.00;;
16159;SDS011;8185;57.818;15.224;2023-07-29T11:16:00;2.28;;;1.90;;
16159;SDS011;8185;57.818;15.224;2023-07-29T11:18:29;2.15;;;1.90;;
16159;SDS011;8185;57.818;15.224;2023-07-29T11:20:57;2.10;;;1.90;;
16159;SDS011;8185;57.818;15.224;2023-07-29T11:23:32;3.42;;;2.15;;
16159;SDS011;8185;57.818;15.224;2023-07-29T11:26:00;2.47;;;1.70;;
16159;SDS011;8185;57.818;15.224;2023-07-29T11:28:28;3.45;;;1.98;;
16159;SDS011;8185;57.818;15.224;2023-07-29T11:30:55;2.25;;;1.88;;
16159;SDS011;8185;57.818;15.224;2023-07-29T11:33:25;2.10;;;1.58;;
16159;SDS011;8185;57.818;15.224;2023-07-29T11:35:53;2.85;;;2.38;;
16159;SDS011;8185;57.818;15.224;2023-07-29T11:38:21;1.92;;;1.60;;
16159;SDS011;8185;57.818;15.224;2023-07-29T11:40:56;2.70;;;1.80;;
16159;SDS011;8185;57.818;15.224;2023-07-29T11:43:25;3.47;;;2.33;;
16159;SDS011;8185;57.818;15.224;2023-07-29T11:45:54;12.73;;;3.72;;
16159;SDS011;8185;57.818;15.224;2023-07-29T11:48:31;4.05;;;2.25;;
16159;SDS011;8185;57.818;15.224;2023-07-29T11:51:03;2.30;;;2.10;;
16159;SDS011;8185;57.818;15.224;2023-07-29T11:53:30;2.05;;;1.85;;
16159;SDS011;8185;57.818;15.224;2023-07-29T11:55:58;3.72;;;2.00;;
16159;SDS011;8185;57.818;15.224;2023-07-29T11:58:25;2.05;;;1.88;;
16159;SDS011;8185;57.818;15.224;2023-07-29T12:00:53;3.17;;;1.88;;
16159;SDS011;8185;57.818;15.224;2023-07-29T12:03:20;2.60;;;1.75;;
16159;SDS011;8185;57.818;15.224;2023-07-29T12:05:50;3.90;;;2.15;;
16159;SDS011;8185;57.818;15.224;2023-07-29T12:08:17;3.50;;;2.17;;
16159;SDS011;8185;57.818;15.224;2023-07-29T12:10:44;2.30;;;1.88;;
16159;SDS011;8185;57.818;15.224;2023-07-29T12:13:12;2.13;;;1.67;;
16159;SDS011;8185;57.818;15.224;2023-07-29T12:15:39;3.30;;;1.95;;
16159;SDS011;8185;57.818;15.224;2023-07-29T12:18:06;1.67;;;1.58;;
16159;SDS011;8185;57.818;15.224;2023-07-29T12:20:35;1.70;;;1.60;;
16159;SDS011;8185;57.818;15.224;2023-07-29T12:23:04;2.05;;;1.77;;
16159;SDS011;8185;57.818;15.224;2023-07-29T12:25:33;1.92;;;1.83;;
16159;SDS011;8185;57.818;15.224;2023-07-29T12:28:04;3.17;;;1.95;;
16159;SDS011;8185;57.818;15.224;2023-07-29T12:30:32;2.20;;;2.00;;
16159;SDS011;8185;57.818;15.224;2023-07-29T12:32:59;1.95;;;1.63;;
16159;SDS011;8185;57.818;15.224;2023-07-29T12:35:33;2.33;;;1.77;;
16159;SDS011;8185;57.818;15.224;2023-07-29T12:38:06;1.90;;;1.70;;
16159;SDS011;8185;57.818;15.224;2023-07-29T12:40:37;2.17;;;1.90;;
16159;SDS011;8185;57.818;15.224;2023-07-29T12:43:04;4.30;;;1.92;;
16159;SDS011;8185;57.818;15.224;2023-07-29T12:45:35;2.17;;;1.98;;
16159;SDS011;8185;57.818;15.224;2023-07-29T12:48:05;2.97;;;2.08;;
16159;SDS011;8185;57.818;15.224;2023-07-29T12:50:32;3.03;;;2.33;;
16159;SDS011;8185;57.818;15.224;2023-07-29T12:52:59;3.05;;;2.03;;
16159;SDS011;8185;57.818;15.224;2023-07-29T12:55:28;2.42;;;2.03;;
16159;SDS011;8185;57.818;15.224;2023-07-29T12:57:55;2.00;;;1.75;;
16159;SDS011;8185;57.818;15.224;2023-07-29T13:00:23;2.65;;;2.08;;
16159;SDS011;8185;57.818;15.224;2023-07-29T13:02:51;2.33;;;1.60;;
16159;SDS011;8185;57.818;15.224;2023-07-29T13:05:18;2.33;;;1.95;;
16159;SDS011;8185;57.818;15.224;2023-07-29T13:07:48;2.80;;;1.80;;
16159;SDS011;8185;57.818;15.224;2023-07-29T13:10:15;2.22;;;1.40;;
16159;SDS011;8185;57.818;15.224;2023-07-29T13:12:44;2.92;;;1.85;;
16159;SDS011;8185;57.818;15.224;2023-07-29T13:15:11;2.10;;;1.70;;
16159;SDS011;8185;57.818;15.224;2023-07-29T13:17:38;1.88;;;1.67;;
16159;SDS011;8185;57.818;15.224;2023-07-29T13:20:07;2.40;;;1.58;;
16159;SDS011;8185;57.818;15.224;2023-07-29T13:22:35;2.10;;;1.80;;
16159;SDS011;8185;57.818;15.224;2023-07-29T13:25:02;2.20;;;2.00;;
16159;SDS011;8185;57.818;15.224;2023-07-29T13:27:29;2.45;;;1.60;;
16159;SDS011;8185;57.818;15.224;2023-07-29T13:29:58;3.25;;;1.80;;
16159;SDS011;8185;57.818;15.224;2023-07-29T13:32:25;1.92;;;1.70;;
16159;SDS011;8185;57.818;15.224;2023-07-29T13:34:52;2.17;;;1.80;;
16159;SDS011;8185;57.818;15.224;2023-07-29T13:37:19;2.10;;;1.67;;
16159;SDS011;8185;57.818;15.224;2023-07-29T13:39:47;3.03;;;1.65;;
16159;SDS011;8185;57.818;15.224;2023-07-29T13:42:14;1.70;;;1.60;;
16159;SDS011;8185;57.818;15.224;2023-07-29T13:44:41;1.92;;;1.73;;
16159;SDS011;8185;57.818;15.224;2023-07-29T13:47:09;1.83;;;1.63;;
16159;SDS011;8185;57.818;15.224;2023-07-29T13:49:37;3.13;;;1.50;;
16159;SDS011;8185;57.818;15.224;2023-07-29T13:52:04;2.38;;;1.77;;
16159;SDS011;8185;57.818;15.224;2023-07-29T13:54:31;1.77;;;1.58;;
16159;SDS011;8185;57.818;15.224;2023-07-29T13:56:58;1.77;;;1.50;;
16159;SDS011;8185;57.818;15.224;2023-07-29T13:59:26;2.30;;;1.80;;
16159;SDS011;8185;57.818;15.224;2023-07-29T14:01:53;2.05;;;1.80;;
16159;SDS011;8185;57.818;15.224;2023-07-29T14:04:22;2.17;;;1.80;;
16159;SDS011;8185;57.818;15.224;2023-07-29T14:06:49;1.40;;;1.30;;
16159;SDS011;8185;57.818;15.224;2023-07-29T14:09:16;2.70;;;1.70;;
16159;SDS011;8185;57.818;15.224;2023-07-29T14:11:43;1.75;;;1.58;;
16159;SDS011;8185;57.818;15.224;2023-07-29T14:14:10;1.98;;;1.58;;
16159;SDS011;8185;57.818;15.224;2023-07-29T14:16:37;1.83;;;1.55;;
16159;SDS011;8185;57.818;15.224;2023-07-29T14:19:05;1.85;;;1.60;;
16159;SDS011;8185;57.818;15.224;2023-07-29T14:21:33;2.58;;;1.63;;
16159;SDS011;8185;57.818;15.224;2023-07-29T14:24:00;1.80;;;1.70;;
16159;SDS011;8185;57.818;15.224;2023-07-29T14:26:27;2.72;;;1.77;;
16159;SDS011;8185;57.818;15.224;2023-07-29T14:28:55;2.13;;;1.90;;
16159;SDS011;8185;57.818;15.224;2023-07-29T14:31:22;4.82;;;1.70;;
16159;SDS011;8185;57.818;15.224;2023-07-29T14:33:49;2.05;;;1.67;;
16159;SDS011;8185;57.818;15.224;2023-07-29T14:36:16;2.22;;;1.88;;
16159;SDS011;8185;57.818;15.224;2023-07-29T14:38:45;3.17;;;1.70;;
16159;SDS011;8185;57.818;15.224;2023-07-29T14:41:12;4.43;;;1.70;;
16159;SDS011;8185;57.818;15.224;2023-07-29T14:43:39;1.90;;;1.70;;
16159;SDS011;8185;57.818;15.224;2023-07-29T14:46:06;3.38;;;1.75;;
16159;SDS011;8185;57.818;15.224;2023-07-29T14:48:34;2.15;;;1.90;;
16159;SDS011;8185;57.818;15.224;2023-07-29T14:51:01;2.08;;;1.88;;
16159;SDS011;8185;57.818;15.224;2023-07-29T14:53:28;3.85;;;1.90;;